sensor_id;sensor_type;location;lat;lon;timestamp;P1;durP1;ratioP1;P2;durP2;ratioP2
64684;SDS011;51109;47.414;18.954;2023-01-19T00:00:14;13.25;;;7.15;;
64684;SDS011;51109;47.414;18.954;2023-01-19T00:02:42;7.47;;;5.75;;
64684;SDS011;51109;47.414;18.954;2023-01-19T00:05:11;12.77;;;7.82;;
64684;SDS011;51109;47.414;18.954;2023-01-19T00:07:38;9.90;;;5.65;;
64684;SDS011;51109;47.414;18.954;2023-01-19T00:10:04;11.88;;;6.43;;
64684;SDS011;51109;47.414;18.954;2023-01-19T00:12:31;16.33;;;6.75;;
64684;SDS011;51109;47.414;18.954;2023-01-19T00:14:57;7.30;;;5.32;;
64684;SDS011;51109;47.414;18.954;2023-01-19T00:17:22;13.13;;;6.60;;
64684;SDS011;51109;47.414;18.954;2023-01-19T00:19:48;16.48;;;7.47;;
64684;SDS011;51109;47.414;18.954;2023-01-19T00:22:14;16.67;;;7.65;;
64684;SDS011;51109;47.414;18.954;2023-01-19T00:24:40;10.35;;;6.10;;
64684;SDS011;51109;47.414;18.954;2023-01-19T00:27:06;13.43;;;6.53;;
64684;SDS011;51109;47.414;18.954;2023-01-19T00:29:32;12.57;;;7.28;;
64684;SDS011;51109;47.414;18.954;2023-01-19T00:31:59;13.50;;;6.25;;
64684;SDS011;51109;47.414;18.954;2023-01-19T00:34:25;9.80;;;4.68;;
64684;SDS011;51109;47.414;18.954;2023-01-19T00:36:51;4.45;;;3.50;;
64684;SDS011;51109;47.414;18.954;2023-01-19T00:39:17;10.88;;;6.05;;
64684;SDS011;51109;47.414;18.954;2023-01-19T00:41:43;11.48;;;4.70;;
64684;SDS011;51109;47.414;18.954;2023-01-19T00:44:29;12.32;;;6.30;;
64684;SDS011;51109;47.414;18.954;2023-01-19T00:46:55;9.85;;;5.18;;
64684;SDS011;51109;47.414;18.954;2023-01-19T00:49:21;9.45;;;5.50;;
64684;SDS011;51109;47.414;18.954;2023-01-19T00:51:47;11.30;;;7.07;;
64684;SDS011;51109;47.414;18.954;2023-01-19T00:54:13;13.48;;;6.18;;
64684;SDS011;51109;47.414;18.954;2023-01-19T00:56:38;2.97;;;1.95;;
64684;SDS011;51109;47.414;18.954;2023-01-19T00:59:04;11.85;;;5.63;;
64684;SDS011;51109;47.414;18.954;2023-01-19T01:01:30;12.77;;;4.78;;
64684;SDS011;51109;47.414;18.954;2023-01-19T01:03:56;11.68;;;5.30;;
64684;SDS011;51109;47.414;18.954;2023-01-19T01:06:22;8.95;;;4.18;;
64684;SDS011;51109;47.414;18.954;2023-01-19T01:08:48;8.35;;;5.22;;
64684;SDS011;51109;47.414;18.954;2023-01-19T01:11:14;10.15;;;4.97;;
64684;SDS011;51109;47.414;18.954;2023-01-19T01:13:40;7.80;;;5.35;;
64684;SDS011;51109;47.414;18.954;2023-01-19T01:16:06;6.55;;;3.92;;
64684;SDS011;51109;47.414;18.954;2023-01-19T01:18:34;11.45;;;4.68;;
64684;SDS011;51109;47.414;18.954;2023-01-19T01:21:00;8.27;;;3.85;;
64684;SDS011;51109;47.414;18.954;2023-01-19T01:23:28;7.03;;;4.30;;
64684;SDS011;51109;47.414;18.954;2023-01-19T01:25:53;11.80;;;4.22;;
64684;SDS011;51109;47.414;18.954;2023-01-19T01:28:19;4.97;;;3.58;;
64684;SDS011;51109;47.414;18.954;2023-01-19T01:30:45;8.70;;;4.60;;
64684;SDS011;51109;47.414;18.954;2023-01-19T01:33:11;4.90;;;3.50;;
64684;SDS011;51109;47.414;18.954;2023-01-19T01:35:37;6.00;;;3.78;;
64684;SDS011;51109;47.414;18.954;2023-01-19T01:38:04;5.88;;;3.00;;
64684;SDS011;51109;47.414;18.954;2023-01-19T01:40:30;5.60;;;3.72;;
64684;SDS011;51109;47.414;18.954;2023-01-19T01:42:55;5.80;;;4.05;;
64684;SDS011;51109;47.414;18.954;2023-01-19T01:47:50;5.35;;;2.25;;
64684;SDS011;51109;47.414;18.954;2023-01-19T01:50:20;3.42;;;2.17;;
64684;SDS011;51109;47.414;18.954;2023-01-19T01:52:53;2.17;;;1.95;;
64684;SDS011;51109;47.414;18.954;2023-01-19T01:55:25;1.77;;;1.40;;
64684;SDS011;51109;47.414;18.954;2023-01-19T01:57:56;2.90;;;1.05;;
64684;SDS011;51109;47.414;18.954;2023-01-19T02:02:56;0.70;;;0.60;;
64684;SDS011;51109;47.414;18.954;2023-01-19T02:05:28;0.65;;;0.65;;
64684;SDS011;51109;47.414;18.954;2023-01-19T02:11:01;0.38;;;0.38;;
64684;SDS011;51109;47.414;18.954;2023-01-19T02:13:47;0.40;;;0.40;;
64684;SDS011;51109;47.414;18.954;2023-01-19T02:16:14;0.60;;;0.47;;
64684;SDS011;51109;47.414;18.954;2023-01-19T02:18:41;0.70;;;0.60;;
64684;SDS011;51109;47.414;18.954;2023-01-19T02:23:56;0.38;;;0.38;;
64684;SDS011;51109;47.414;18.954;2023-01-19T02:26:32;0.40;;;0.40;;
64684;SDS011;51109;47.414;18.954;2023-01-19T02:29:06;0.30;;;0.30;;
64684;SDS011;51109;47.414;18.954;2023-01-19T02:31:34;0.70;;;0.70;;
64684;SDS011;51109;47.414;18.954;2023-01-19T02:34:01;0.38;;;0.38;;
64684;SDS011;51109;47.414;18.954;2023-01-19T02:36:43;0.45;;;0.45;;
64684;SDS011;51109;47.414;18.954;2023-01-19T02:39:24;0.57;;;0.57;;
64684;SDS011;51109;47.414;18.954;2023-01-19T02:41:54;0.47;;;0.47;;
64684;SDS011;51109;47.414;18.954;2023-01-19T02:44:26;0.20;;;0.13;;
64684;SDS011;51109;47.414;18.954;2023-01-19T02:46:55;0.20;;;0.20;;
64684;SDS011;51109;47.414;18.954;2023-01-19T02:49:22;0.70;;;0.60;;
64684;SDS011;51109;47.414;18.954;2023-01-19T02:51:48;0.57;;;0.57;;
64684;SDS011;51109;47.414;18.954;2023-01-19T02:59:49;0.47;;;0.47;;
64684;SDS011;51109;47.414;18.954;2023-01-19T03:15:43;0.50;;;0.50;;
64684;SDS011;51109;47.414;18.954;2023-01-19T03:18:12;0.70;;;0.70;;
64684;SDS011;51109;47.414;18.954;2023-01-19T03:20:41;3.80;;;0.77;;
64684;SDS011;51109;47.414;18.954;2023-01-19T03:23:09;0.57;;;0.52;;
64684;SDS011;51109;47.414;18.954;2023-01-19T03:25:37;0.60;;;0.50;;
64684;SDS011;51109;47.414;18.954;2023-01-19T03:28:06;1.20;;;0.55;;
64684;SDS011;51109;47.414;18.954;2023-01-19T03:30:38;0.75;;;0.75;;
64684;SDS011;51109;47.414;18.954;2023-01-19T03:33:11;0.40;;;0.40;;
64684;SDS011;51109;47.414;18.954;2023-01-19T03:35:44;0.88;;;0.80;;
64684;SDS011;51109;47.414;18.954;2023-01-19T03:38:17;0.52;;;0.40;;
64684;SDS011;51109;47.414;18.954;2023-01-19T03:40:50;0.28;;;0.28;;
64684;SDS011;51109;47.414;18.954;2023-01-19T03:43:20;0.43;;;0.40;;
64684;SDS011;51109;47.414;18.954;2023-01-19T03:45:48;0.10;;;0.10;;
64684;SDS011;51109;47.414;18.954;2023-01-19T03:48:16;0.20;;;0.20;;
64684;SDS011;51109;47.414;18.954;2023-01-19T03:50:42;0.40;;;0.40;;
64684;SDS011;51109;47.414;18.954;2023-01-19T03:53:11;0.32;;;0.32;;
64684;SDS011;51109;47.414;18.954;2023-01-19T03:55:40;0.50;;;0.50;;
64684;SDS011;51109;47.414;18.954;2023-01-19T03:58:09;0.40;;;0.40;;
64684;SDS011;51109;47.414;18.954;2023-01-19T04:00:35;0.32;;;0.32;;
64684;SDS011;51109;47.414;18.954;2023-01-19T04:03:02;0.30;;;0.30;;
64684;SDS011;51109;47.414;18.954;2023-01-19T04:05:28;0.30;;;0.30;;
64684;SDS011;51109;47.414;18.954;2023-01-19T04:07:54;0.20;;;0.20;;
64684;SDS011;51109;47.414;18.954;2023-01-19T04:10:20;0.20;;;0.20;;
64684;SDS011;51109;47.414;18.954;2023-01-19T04:12:47;0.60;;;0.60;;
64684;SDS011;51109;47.414;18.954;2023-01-19T04:15:13;0.38;;;0.38;;
64684;SDS011;51109;47.414;18.954;2023-01-19T04:17:39;0.38;;;0.38;;
64684;SDS011;51109;47.414;18.954;2023-01-19T04:20:06;0.63;;;0.63;;
64684;SDS011;51109;47.414;18.954;2023-01-19T04:22:33;1.60;;;1.15;;
64684;SDS011;51109;47.414;18.954;2023-01-19T04:24:59;0.80;;;0.68;;
64684;SDS011;51109;47.414;18.954;2023-01-19T04:27:25;2.58;;;1.23;;
64684;SDS011;51109;47.414;18.954;2023-01-19T04:29:51;1.65;;;1.10;;
64684;SDS011;51109;47.414;18.954;2023-01-19T04:32:17;1.10;;;0.80;;
64684;SDS011;51109;47.414;18.954;2023-01-19T04:34:43;2.15;;;0.93;;
64684;SDS011;51109;47.414;18.954;2023-01-19T04:37:09;1.23;;;1.00;;
64684;SDS011;51109;47.414;18.954;2023-01-19T04:39:35;0.50;;;0.50;;
64684;SDS011;51109;47.414;18.954;2023-01-19T04:42:01;1.20;;;1.08;;
64684;SDS011;51109;47.414;18.954;2023-01-19T04:44:27;4.85;;;1.80;;
64684;SDS011;51109;47.414;18.954;2023-01-19T04:46:53;0.88;;;0.88;;
64684;SDS011;51109;47.414;18.954;2023-01-19T04:49:19;2.97;;;1.40;;
64684;SDS011;51109;47.414;18.954;2023-01-19T04:51:45;1.95;;;1.27;;
64684;SDS011;51109;47.414;18.954;2023-01-19T04:54:11;0.75;;;0.75;;
64684;SDS011;51109;47.414;18.954;2023-01-19T04:56:37;6.65;;;0.82;;
64684;SDS011;51109;47.414;18.954;2023-01-19T04:59:05;1.13;;;0.98;;
64684;SDS011;51109;47.414;18.954;2023-01-19T05:01:31;0.75;;;0.65;;
64684;SDS011;51109;47.414;18.954;2023-01-19T05:03:57;0.98;;;0.98;;
64684;SDS011;51109;47.414;18.954;2023-01-19T05:06:24;0.20;;;0.20;;
64684;SDS011;51109;47.414;18.954;2023-01-19T05:08:50;0.50;;;0.50;;
64684;SDS011;51109;47.414;18.954;2023-01-19T05:11:16;0.45;;;0.45;;
64684;SDS011;51109;47.414;18.954;2023-01-19T05:13:42;0.10;;;0.10;;
64684;SDS011;51109;47.414;18.954;2023-01-19T05:16:07;0.55;;;0.55;;
64684;SDS011;51109;47.414;18.954;2023-01-19T05:18:33;1.05;;;0.68;;
64684;SDS011;51109;47.414;18.954;2023-01-19T05:21:04;1.63;;;0.75;;
64684;SDS011;51109;47.414;18.954;2023-01-19T05:23:30;0.50;;;0.50;;
64684;SDS011;51109;47.414;18.954;2023-01-19T05:25:57;0.82;;;0.70;;
64684;SDS011;51109;47.414;18.954;2023-01-19T05:28:27;0.47;;;0.45;;
64684;SDS011;51109;47.414;18.954;2023-01-19T05:30:55;0.30;;;0.30;;
64684;SDS011;51109;47.414;18.954;2023-01-19T05:33:21;0.40;;;0.40;;
64684;SDS011;51109;47.414;18.954;2023-01-19T05:35:50;1.30;;;1.02;;
64684;SDS011;51109;47.414;18.954;2023-01-19T05:38:17;0.30;;;0.30;;
64684;SDS011;51109;47.414;18.954;2023-01-19T05:40:44;0.57;;;0.30;;
64684;SDS011;51109;47.414;18.954;2023-01-19T05:43:10;0.10;;;0.10;;
64684;SDS011;51109;47.414;18.954;2023-01-19T05:45:36;0.43;;;0.43;;
64684;SDS011;51109;47.414;18.954;2023-01-19T05:48:05;0.28;;;0.28;;
64684;SDS011;51109;47.414;18.954;2023-01-19T05:50:33;0.38;;;0.38;;
64684;SDS011;51109;47.414;18.954;2023-01-19T05:52:59;0.98;;;0.98;;
64684;SDS011;51109;47.414;18.954;2023-01-19T05:55:26;0.20;;;0.20;;
64684;SDS011;51109;47.414;18.954;2023-01-19T05:57:52;0.47;;;0.47;;
64684;SDS011;51109;47.414;18.954;2023-01-19T06:00:19;0.63;;;0.60;;
64684;SDS011;51109;47.414;18.954;2023-01-19T06:02:45;0.40;;;0.25;;
64684;SDS011;51109;47.414;18.954;2023-01-19T06:05:13;0.40;;;0.40;;
64684;SDS011;51109;47.414;18.954;2023-01-19T06:07:40;1.30;;;0.50;;
64684;SDS011;51109;47.414;18.954;2023-01-19T06:10:07;0.75;;;0.75;;
64684;SDS011;51109;47.414;18.954;2023-01-19T06:12:34;0.10;;;0.10;;
64684;SDS011;51109;47.414;18.954;2023-01-19T06:14:59;1.00;;;0.73;;
64684;SDS011;51109;47.414;18.954;2023-01-19T06:17:25;1.50;;;1.00;;
64684;SDS011;51109;47.414;18.954;2023-01-19T06:19:52;1.20;;;0.93;;
64684;SDS011;51109;47.414;18.954;2023-01-19T06:22:18;1.13;;;0.90;;
64684;SDS011;51109;47.414;18.954;2023-01-19T06:24:44;0.93;;;0.93;;
64684;SDS011;51109;47.414;18.954;2023-01-19T06:27:10;1.60;;;1.50;;
64684;SDS011;51109;47.414;18.954;2023-01-19T06:29:35;1.55;;;1.25;;
64684;SDS011;51109;47.414;18.954;2023-01-19T06:32:01;1.38;;;1.17;;
64684;SDS011;51109;47.414;18.954;2023-01-19T06:34:27;1.48;;;1.10;;
64684;SDS011;51109;47.414;18.954;2023-01-19T06:36:54;2.97;;;1.15;;
64684;SDS011;51109;47.414;18.954;2023-01-19T06:39:20;1.98;;;1.48;;
64684;SDS011;51109;47.414;18.954;2023-01-19T06:41:46;0.60;;;0.60;;
64684;SDS011;51109;47.414;18.954;2023-01-19T06:44:12;0.38;;;0.38;;
64684;SDS011;51109;47.414;18.954;2023-01-19T06:46:38;0.45;;;0.45;;
64684;SDS011;51109;47.414;18.954;2023-01-19T06:49:04;2.42;;;2.22;;
64684;SDS011;51109;47.414;18.954;2023-01-19T06:51:30;2.08;;;1.50;;
64684;SDS011;51109;47.414;18.954;2023-01-19T06:53:56;1.67;;;1.58;;
64684;SDS011;51109;47.414;18.954;2023-01-19T06:56:23;3.15;;;1.60;;
64684;SDS011;51109;47.414;18.954;2023-01-19T06:58:49;3.25;;;2.50;;
64684;SDS011;51109;47.414;18.954;2023-01-19T07:01:16;2.30;;;2.10;;
64684;SDS011;51109;47.414;18.954;2023-01-19T07:03:42;5.20;;;3.10;;
64684;SDS011;51109;47.414;18.954;2023-01-19T07:06:08;1.80;;;1.55;;
64684;SDS011;51109;47.414;18.954;2023-01-19T07:08:34;5.43;;;3.28;;
64684;SDS011;51109;47.414;18.954;2023-01-19T07:11:02;5.28;;;3.03;;
64684;SDS011;51109;47.414;18.954;2023-01-19T07:13:33;3.15;;;2.75;;
64684;SDS011;51109;47.414;18.954;2023-01-19T07:16:03;4.68;;;3.08;;
64684;SDS011;51109;47.414;18.954;2023-01-19T07:18:31;3.58;;;2.03;;
64684;SDS011;51109;47.414;18.954;2023-01-19T07:20:57;4.82;;;2.75;;
64684;SDS011;51109;47.414;18.954;2023-01-19T07:23:23;3.83;;;3.00;;
64684;SDS011;51109;47.414;18.954;2023-01-19T07:25:49;3.03;;;2.30;;
64684;SDS011;51109;47.414;18.954;2023-01-19T07:28:15;4.97;;;3.33;;
64684;SDS011;51109;47.414;18.954;2023-01-19T07:30:41;5.60;;;2.88;;
64684;SDS011;51109;47.414;18.954;2023-01-19T07:33:08;1.27;;;0.65;;
64684;SDS011;51109;47.414;18.954;2023-01-19T07:35:34;2.65;;;2.30;;
64684;SDS011;51109;47.414;18.954;2023-01-19T07:38:00;3.00;;;2.42;;
64684;SDS011;51109;47.414;18.954;2023-01-19T07:40:26;2.47;;;1.45;;
64684;SDS011;51109;47.414;18.954;2023-01-19T07:42:52;2.50;;;2.10;;
64684;SDS011;51109;47.414;18.954;2023-01-19T07:45:18;6.50;;;3.83;;
64684;SDS011;51109;47.414;18.954;2023-01-19T07:47:45;6.72;;;4.10;;
64684;SDS011;51109;47.414;18.954;2023-01-19T07:50:15;5.47;;;3.15;;
64684;SDS011;51109;47.414;18.954;2023-01-19T07:52:42;6.15;;;3.20;;
64684;SDS011;51109;47.414;18.954;2023-01-19T07:55:09;3.28;;;2.53;;
64684;SDS011;51109;47.414;18.954;2023-01-19T07:57:35;2.72;;;2.35;;
64684;SDS011;51109;47.414;18.954;2023-01-19T08:00:01;4.60;;;3.03;;
64684;SDS011;51109;47.414;18.954;2023-01-19T08:02:28;9.05;;;4.05;;
64684;SDS011;51109;47.414;18.954;2023-01-19T08:04:54;5.68;;;3.13;;
64684;SDS011;51109;47.414;18.954;2023-01-19T08:07:20;8.20;;;3.80;;
64684;SDS011;51109;47.414;18.954;2023-01-19T08:09:46;7.72;;;3.95;;
64684;SDS011;51109;47.414;18.954;2023-01-19T08:12:13;6.32;;;4.40;;
64684;SDS011;51109;47.414;18.954;2023-01-19T08:14:39;13.13;;;4.45;;
64684;SDS011;51109;47.414;18.954;2023-01-19T08:17:05;9.13;;;4.82;;
64684;SDS011;51109;47.414;18.954;2023-01-19T08:19:31;9.10;;;4.80;;
64684;SDS011;51109;47.414;18.954;2023-01-19T08:21:57;9.52;;;4.55;;
64684;SDS011;51109;47.414;18.954;2023-01-19T08:24:24;4.20;;;3.03;;
64684;SDS011;51109;47.414;18.954;2023-01-19T08:26:58;11.60;;;5.65;;
64684;SDS011;51109;47.414;18.954;2023-01-19T08:29:25;10.60;;;4.70;;
64684;SDS011;51109;47.414;18.954;2023-01-19T08:31:51;7.93;;;4.93;;
64684;SDS011;51109;47.414;18.954;2023-01-19T08:34:19;14.57;;;5.22;;
64684;SDS011;51109;47.414;18.954;2023-01-19T08:36:45;10.98;;;6.47;;
64684;SDS011;51109;47.414;18.954;2023-01-19T08:39:12;12.23;;;6.03;;
64684;SDS011;51109;47.414;18.954;2023-01-19T08:41:38;10.38;;;3.58;;
64684;SDS011;51109;47.414;18.954;2023-01-19T08:44:04;9.15;;;4.55;;
64684;SDS011;51109;47.414;18.954;2023-01-19T08:46:30;15.80;;;7.38;;
64684;SDS011;51109;47.414;18.954;2023-01-19T08:48:56;6.82;;;4.90;;
64684;SDS011;51109;47.414;18.954;2023-01-19T08:51:22;15.27;;;6.43;;
64684;SDS011;51109;47.414;18.954;2023-01-19T08:53:48;13.00;;;5.10;;
64684;SDS011;51109;47.414;18.954;2023-01-19T08:56:14;9.38;;;5.80;;
64684;SDS011;51109;47.414;18.954;2023-01-19T08:58:41;19.15;;;8.43;;
64684;SDS011;51109;47.414;18.954;2023-01-19T09:01:08;14.05;;;6.28;;
64684;SDS011;51109;47.414;18.954;2023-01-19T09:03:35;12.85;;;6.68;;
64684;SDS011;51109;47.414;18.954;2023-01-19T09:06:04;13.30;;;5.60;;
64684;SDS011;51109;47.414;18.954;2023-01-19T09:08:30;11.02;;;6.03;;
64684;SDS011;51109;47.414;18.954;2023-01-19T09:10:56;16.25;;;7.38;;
64684;SDS011;51109;47.414;18.954;2023-01-19T09:13:22;11.40;;;6.85;;
64684;SDS011;51109;47.414;18.954;2023-01-19T09:15:48;12.50;;;5.65;;
64684;SDS011;51109;47.414;18.954;2023-01-19T09:18:16;15.57;;;7.82;;
64684;SDS011;51109;47.414;18.954;2023-01-19T09:20:44;20.10;;;6.80;;
64684;SDS011;51109;47.414;18.954;2023-01-19T09:23:13;17.67;;;9.75;;
64684;SDS011;51109;47.414;18.954;2023-01-19T09:25:41;18.05;;;7.65;;
64684;SDS011;51109;47.414;18.954;2023-01-19T09:28:09;18.08;;;8.50;;
64684;SDS011;51109;47.414;18.954;2023-01-19T09:30:37;19.08;;;9.20;;
64684;SDS011;51109;47.414;18.954;2023-01-19T09:33:08;18.95;;;8.85;;
64684;SDS011;51109;47.414;18.954;2023-01-19T09:35:36;7.22;;;3.97;;
64684;SDS011;51109;47.414;18.954;2023-01-19T09:38:03;11.38;;;6.30;;
64684;SDS011;51109;47.414;18.954;2023-01-19T09:40:31;5.75;;;4.10;;
64684;SDS011;51109;47.414;18.954;2023-01-19T09:43:00;6.88;;;4.30;;
64684;SDS011;51109;47.414;18.954;2023-01-19T09:45:35;15.02;;;6.25;;
64684;SDS011;51109;47.414;18.954;2023-01-19T09:48:34;4.30;;;3.90;;
64684;SDS011;51109;47.414;18.954;2023-01-19T09:51:21;14.68;;;8.55;;
64684;SDS011;51109;47.414;18.954;2023-01-19T09:53:56;4.53;;;4.13;;
64684;SDS011;51109;47.414;18.954;2023-01-19T09:56:29;19.13;;;8.77;;
64684;SDS011;51109;47.414;18.954;2023-01-19T09:58:56;14.25;;;7.70;;
64684;SDS011;51109;47.414;18.954;2023-01-19T10:06:33;12.27;;;6.05;;
64684;SDS011;51109;47.414;18.954;2023-01-19T10:09:00;14.10;;;7.78;;
64684;SDS011;51109;47.414;18.954;2023-01-19T10:11:47;11.13;;;7.30;;
64684;SDS011;51109;47.414;18.954;2023-01-19T10:14:19;13.60;;;7.90;;
64684;SDS011;51109;47.414;18.954;2023-01-19T10:19:49;16.23;;;9.73;;
64684;SDS011;51109;47.414;18.954;2023-01-19T10:24:46;9.90;;;6.20;;
64684;SDS011;51109;47.414;18.954;2023-01-19T10:27:17;13.32;;;6.72;;
64684;SDS011;51109;47.414;18.954;2023-01-19T10:29:46;12.48;;;4.97;;
64684;SDS011;51109;47.414;18.954;2023-01-19T10:32:15;10.68;;;4.15;;
64684;SDS011;51109;47.414;18.954;2023-01-19T10:34:45;17.27;;;7.35;;
64684;SDS011;51109;47.414;18.954;2023-01-19T10:39:38;17.33;;;8.43;;
64684;SDS011;51109;47.414;18.954;2023-01-19T10:42:08;20.95;;;7.88;;
64684;SDS011;51109;47.414;18.954;2023-01-19T10:44:37;19.05;;;8.10;;
64684;SDS011;51109;47.414;18.954;2023-01-19T10:47:03;16.15;;;8.85;;
64684;SDS011;51109;47.414;18.954;2023-01-19T10:52:05;21.70;;;8.05;;
64684;SDS011;51109;47.414;18.954;2023-01-19T10:54:32;12.02;;;7.32;;
64684;SDS011;51109;47.414;18.954;2023-01-19T10:57:04;9.27;;;6.05;;
64684;SDS011;51109;47.414;18.954;2023-01-19T11:04:51;15.30;;;8.65;;
64684;SDS011;51109;47.414;18.954;2023-01-19T11:07:22;3.72;;;2.80;;
64684;SDS011;51109;47.414;18.954;2023-01-19T11:12:46;14.35;;;6.78;;
64684;SDS011;51109;47.414;18.954;2023-01-19T11:17:47;22.75;;;10.27;;
64684;SDS011;51109;47.414;18.954;2023-01-19T11:20:18;18.65;;;8.88;;
64684;SDS011;51109;47.414;18.954;2023-01-19T11:22:46;14.63;;;7.05;;
64684;SDS011;51109;47.414;18.954;2023-01-19T11:25:29;4.35;;;3.65;;
64684;SDS011;51109;47.414;18.954;2023-01-19T11:27:58;5.28;;;4.07;;
64684;SDS011;51109;47.414;18.954;2023-01-19T11:30:25;20.65;;;9.75;;
64684;SDS011;51109;47.414;18.954;2023-01-19T11:32:52;18.17;;;9.10;;
64684;SDS011;51109;47.414;18.954;2023-01-19T11:40:37;18.83;;;9.45;;
64684;SDS011;51109;47.414;18.954;2023-01-19T11:43:03;6.25;;;3.67;;
64684;SDS011;51109;47.414;18.954;2023-01-19T11:45:30;52.42;;;13.07;;
64684;SDS011;51109;47.414;18.954;2023-01-19T11:48:00;75.35;;;32.83;;
64684;SDS011;51109;47.414;18.954;2023-01-19T11:50:34;20.42;;;10.75;;
64684;SDS011;51109;47.414;18.954;2023-01-19T11:53:21;21.65;;;12.38;;
64684;SDS011;51109;47.414;18.954;2023-01-19T11:56:10;10.75;;;4.88;;
64684;SDS011;51109;47.414;18.954;2023-01-19T11:58:36;12.45;;;6.22;;
64684;SDS011;51109;47.414;18.954;2023-01-19T12:01:13;7.95;;;6.00;;
64684;SDS011;51109;47.414;18.954;2023-01-19T12:06:39;14.82;;;8.13;;
64684;SDS011;51109;47.414;18.954;2023-01-19T12:11:36;26.02;;;10.27;;
64684;SDS011;51109;47.414;18.954;2023-01-19T12:14:08;15.30;;;7.82;;
64684;SDS011;51109;47.414;18.954;2023-01-19T12:16:52;22.85;;;10.05;;
64684;SDS011;51109;47.414;18.954;2023-01-19T12:19:23;15.75;;;8.27;;
64684;SDS011;51109;47.414;18.954;2023-01-19T12:22:00;20.27;;;7.82;;
64684;SDS011;51109;47.414;18.954;2023-01-19T12:24:29;13.25;;;7.43;;
64684;SDS011;51109;47.414;18.954;2023-01-19T12:27:23;16.02;;;9.73;;
64684;SDS011;51109;47.414;18.954;2023-01-19T12:30:22;10.73;;;6.07;;
64684;SDS011;51109;47.414;18.954;2023-01-19T12:32:51;18.27;;;7.72;;
64684;SDS011;51109;47.414;18.954;2023-01-19T12:38:44;19.05;;;10.85;;
64684;SDS011;51109;47.414;18.954;2023-01-19T12:43:40;8.70;;;5.10;;
64684;SDS011;51109;47.414;18.954;2023-01-19T12:49:03;8.73;;;5.60;;
64684;SDS011;51109;47.414;18.954;2023-01-19T12:51:48;4.13;;;3.72;;
64684;SDS011;51109;47.414;18.954;2023-01-19T12:54:20;4.18;;;3.72;;
64684;SDS011;51109;47.414;18.954;2023-01-19T12:56:55;10.82;;;5.80;;
64684;SDS011;51109;47.414;18.954;2023-01-19T12:59:24;14.45;;;8.20;;
64684;SDS011;51109;47.414;18.954;2023-01-19T13:05:11;15.60;;;8.70;;
64684;SDS011;51109;47.414;18.954;2023-01-19T13:26:38;23.75;;;8.05;;
64684;SDS011;51109;47.414;18.954;2023-01-19T13:31:49;14.20;;;6.30;;
64684;SDS011;51109;47.414;18.954;2023-01-19T13:34:19;7.95;;;5.22;;
64684;SDS011;51109;47.414;18.954;2023-01-19T13:36:51;9.40;;;4.50;;
64684;SDS011;51109;47.414;18.954;2023-01-19T13:39:25;7.28;;;4.15;;
64684;SDS011;51109;47.414;18.954;2023-01-19T13:42:05;7.32;;;4.75;;
64684;SDS011;51109;47.414;18.954;2023-01-19T13:44:46;9.57;;;5.55;;
64684;SDS011;51109;47.414;18.954;2023-01-19T13:47:38;8.35;;;4.80;;
64684;SDS011;51109;47.414;18.954;2023-01-19T13:50:30;12.93;;;5.78;;
64684;SDS011;51109;47.414;18.954;2023-01-19T13:53:00;7.22;;;4.47;;
64684;SDS011;51109;47.414;18.954;2023-01-19T13:55:28;8.77;;;5.32;;
64684;SDS011;51109;47.414;18.954;2023-01-19T13:57:55;3.72;;;2.28;;
64684;SDS011;51109;47.414;18.954;2023-01-19T14:00:22;14.57;;;7.53;;
64684;SDS011;51109;47.414;18.954;2023-01-19T14:05:34;10.00;;;5.15;;
64684;SDS011;51109;47.414;18.954;2023-01-19T14:10:38;17.23;;;7.90;;
64684;SDS011;51109;47.414;18.954;2023-01-19T14:13:05;11.90;;;4.68;;
64684;SDS011;51109;47.414;18.954;2023-01-19T14:18:37;9.85;;;3.95;;
64684;SDS011;51109;47.414;18.954;2023-01-19T14:31:41;9.73;;;5.28;;
64684;SDS011;51109;47.414;18.954;2023-01-19T14:37:17;9.60;;;5.72;;
64684;SDS011;51109;47.414;18.954;2023-01-19T14:39:54;7.05;;;5.82;;
64684;SDS011;51109;47.414;18.954;2023-01-19T14:42:29;10.95;;;4.88;;
64684;SDS011;51109;47.414;18.954;2023-01-19T14:44:59;10.50;;;5.95;;
64684;SDS011;51109;47.414;18.954;2023-01-19T14:47:32;12.35;;;6.28;;
64684;SDS011;51109;47.414;18.954;2023-01-19T14:50:05;10.02;;;5.25;;
64684;SDS011;51109;47.414;18.954;2023-01-19T14:52:47;13.63;;;5.20;;
64684;SDS011;51109;47.414;18.954;2023-01-19T14:55:20;3.47;;;2.83;;
64684;SDS011;51109;47.414;18.954;2023-01-19T14:57:49;8.32;;;5.95;;
64684;SDS011;51109;47.414;18.954;2023-01-19T15:00:18;9.55;;;5.32;;
64684;SDS011;51109;47.414;18.954;2023-01-19T15:02:45;7.82;;;4.00;;
64684;SDS011;51109;47.414;18.954;2023-01-19T15:05:11;10.55;;;4.90;;
64684;SDS011;51109;47.414;18.954;2023-01-19T15:07:38;11.63;;;5.72;;
64684;SDS011;51109;47.414;18.954;2023-01-19T15:10:12;5.88;;;3.30;;
64684;SDS011;51109;47.414;18.954;2023-01-19T15:12:42;4.95;;;2.92;;
64684;SDS011;51109;47.414;18.954;2023-01-19T15:15:12;12.32;;;6.15;;
64684;SDS011;51109;47.414;18.954;2023-01-19T15:17:40;10.95;;;5.75;;
64684;SDS011;51109;47.414;18.954;2023-01-19T15:20:10;9.20;;;4.88;;
64684;SDS011;51109;47.414;18.954;2023-01-19T15:22:39;11.90;;;5.43;;
64684;SDS011;51109;47.414;18.954;2023-01-19T15:25:05;10.25;;;5.38;;
64684;SDS011;51109;47.414;18.954;2023-01-19T15:27:31;10.65;;;5.53;;
64684;SDS011;51109;47.414;18.954;2023-01-19T15:29:57;9.73;;;5.95;;
64684;SDS011;51109;47.414;18.954;2023-01-19T15:32:23;14.75;;;7.07;;
64684;SDS011;51109;47.414;18.954;2023-01-19T15:34:49;19.20;;;7.40;;
64684;SDS011;51109;47.414;18.954;2023-01-19T15:37:15;10.32;;;6.13;;
64684;SDS011;51109;47.414;18.954;2023-01-19T15:39:41;11.95;;;6.05;;
64684;SDS011;51109;47.414;18.954;2023-01-19T15:42:13;3.05;;;2.75;;
64684;SDS011;51109;47.414;18.954;2023-01-19T15:44:39;10.90;;;6.28;;
64684;SDS011;51109;47.414;18.954;2023-01-19T15:47:05;18.65;;;7.97;;
64684;SDS011;51109;47.414;18.954;2023-01-19T15:49:34;12.00;;;5.32;;
64684;SDS011;51109;47.414;18.954;2023-01-19T15:52:00;5.07;;;3.92;;
64684;SDS011;51109;47.414;18.954;2023-01-19T15:54:26;9.88;;;5.00;;
64684;SDS011;51109;47.414;18.954;2023-01-19T15:56:52;5.30;;;4.05;;
64684;SDS011;51109;47.414;18.954;2023-01-19T15:59:17;10.43;;;5.43;;
64684;SDS011;51109;47.414;18.954;2023-01-19T16:01:43;16.23;;;7.75;;
64684;SDS011;51109;47.414;18.954;2023-01-19T16:04:09;6.57;;;5.32;;
64684;SDS011;51109;47.414;18.954;2023-01-19T16:06:36;3.03;;;1.85;;
64684;SDS011;51109;47.414;18.954;2023-01-19T16:09:03;14.07;;;6.95;;
64684;SDS011;51109;47.414;18.954;2023-01-19T16:11:30;18.80;;;8.48;;
64684;SDS011;51109;47.414;18.954;2023-01-19T16:13:58;9.98;;;5.93;;
64684;SDS011;51109;47.414;18.954;2023-01-19T16:16:24;12.90;;;7.20;;
64684;SDS011;51109;47.414;18.954;2023-01-19T16:18:52;10.10;;;6.78;;
64684;SDS011;51109;47.414;18.954;2023-01-19T16:21:18;13.40;;;7.93;;
64684;SDS011;51109;47.414;18.954;2023-01-19T16:23:44;15.23;;;8.45;;
64684;SDS011;51109;47.414;18.954;2023-01-19T16:26:24;15.63;;;6.90;;
64684;SDS011;51109;47.414;18.954;2023-01-19T16:28:50;18.25;;;6.82;;
64684;SDS011;51109;47.414;18.954;2023-01-19T16:31:16;11.70;;;5.38;;
64684;SDS011;51109;47.414;18.954;2023-01-19T16:33:43;18.27;;;8.77;;
64684;SDS011;51109;47.414;18.954;2023-01-19T16:36:22;15.00;;;6.57;;
64684;SDS011;51109;47.414;18.954;2023-01-19T16:38:53;22.15;;;8.35;;